Big Bear Station Historical Data
Daily Summary for March 18, 2019 Units:  Both    English   Metric
Next Day »
Daily Weekly Monthly Yearly Custom
  High: Low: Average:
Temperature: 55.4 °F /  13 °C 25.9 °F /  -3.4 °C 38.9 °F /  3.8 °C
Dew Point: 35.5 °F /  1.9 °C 24.4 °F /  -4.2 °C 30.1 °F /  -1.1 °C
Humidity: 96% 39% 75%
Wind Speed: 7.3mph /  11.7km/h - 0.7mph /  1.1km/h
Wind Gust: -999.0mph /  -1607.7km/h - -
Wind- - West
Pressure: 23.55 in /  797.4 hPa 23.48 in /  795 hPa -
Precipitation: 0.00 in /  0 mm    
Historical Graphs
 
 
Tabular Data for March 18, 2019
Time Temperature Dew Point Pressure Wind Wind Speed Wind Gust Humidity Rainfall Rate (Hourly)
00:01 30.4 °F /  -0.9 °C 27.3 °F /  -2.6 °C 23.55in /  797.4hPa Calm   -999.0mph /  -1607.7km/h 88% 0.00in /  0mm
00:16 30.4 °F /  -0.9 °C 27.3 °F /  -2.6 °C 23.55in /  797.4hPa Calm   -999.0mph /  -1607.7km/h 88% 0.00in /  0mm
00:32 29.8 °F /  -1.2 °C 27.0 °F /  -2.8 °C 23.55in /  797.4hPa Calm   -999.0mph /  -1607.7km/h 89% 0.00in /  0mm
00:47 30.0 °F /  -1.1 °C 27.4 °F /  -2.6 °C 23.55in /  797.4hPa Calm   -999.0mph /  -1607.7km/h 90% 0.00in /  0mm
01:02 29.7 °F /  -1.3 °C 27.1 °F /  -2.7 °C 23.54in /  797.1hPa Calm   -999.0mph /  -1607.7km/h 90% 0.00in /  0mm
01:17 29.3 °F /  -1.5 °C 27.0 °F /  -2.8 °C 23.54in /  797.1hPa Calm   -999.0mph /  -1607.7km/h 91% 0.00in /  0mm
01:32 29.1 °F /  -1.6 °C 26.8 °F /  -2.9 °C 23.54in /  797.1hPa Calm   -999.0mph /  -1607.7km/h 91% 0.00in /  0mm
01:48 28.8 °F /  -1.8 °C 26.8 °F /  -2.9 °C 23.54in /  797.1hPa Calm   -999.0mph /  -1607.7km/h 92% 0.00in /  0mm
02:03 28.8 °F /  -1.8 °C 26.8 °F /  -2.9 °C 23.54in /  797.1hPa Calm   -999.0mph /  -1607.7km/h 92% 0.00in /  0mm
02:18 28.6 °F /  -1.9 °C 26.6 °F /  -3 °C 23.54in /  797.1hPa Calm   -999.0mph /  -1607.7km/h 92% 0.00in /  0mm
02:33 28.2 °F /  -2.1 °C 26.2 °F /  -3.2 °C 23.53in /  796.7hPa Calm   -999.0mph /  -1607.7km/h 92% 0.00in /  0mm
02:49 28.0 °F /  -2.2 °C 26.2 °F /  -3.2 °C 23.53in /  796.7hPa Calm   -999.0mph /  -1607.7km/h 93% 0.00in /  0mm
03:04 27.9 °F /  -2.3 °C 26.1 °F /  -3.3 °C 23.52in /  796.4hPa Calm   -999.0mph /  -1607.7km/h 93% 0.00in /  0mm
03:19 27.5 °F /  -2.5 °C 26.0 °F /  -3.3 °C 23.51in /  796hPa Calm   -999.0mph /  -1607.7km/h 94% 0.00in /  0mm
03:35 27.5 °F /  -2.5 °C 26.3 °F /  -3.2 °C 23.51in /  796hPa Calm   -999.0mph /  -1607.7km/h 95% 0.00in /  0mm
03:50 27.1 °F /  -2.7 °C 25.9 °F /  -3.4 °C 23.51in /  796hPa Calm   -999.0mph /  -1607.7km/h 95% 0.00in /  0mm
04:05 27.3 °F /  -2.6 °C 26.3 °F /  -3.2 °C 23.50in /  795.7hPa Calm   -999.0mph /  -1607.7km/h 96% 0.00in /  0mm
04:20 26.8 °F /  -2.9 °C 25.8 °F /  -3.4 °C 23.50in /  795.7hPa Calm   -999.0mph /  -1607.7km/h 96% 0.00in /  0mm
04:36 27.0 °F /  -2.8 °C 26.0 °F /  -3.3 °C 23.50in /  795.7hPa Calm   -999.0mph /  -1607.7km/h 96% 0.00in /  0mm
04:51 27.0 °F /  -2.8 °C 26.0 °F /  -3.3 °C 23.50in /  795.7hPa Calm   -999.0mph /  -1607.7km/h 96% 0.00in /  0mm
05:06 26.8 °F /  -2.9 °C 25.8 °F /  -3.4 °C 23.50in /  795.7hPa Calm   -999.0mph /  -1607.7km/h 96% 0.00in /  0mm
05:21 26.4 °F /  -3.1 °C 25.4 °F /  -3.7 °C 23.50in /  795.7hPa Calm   -999.0mph /  -1607.7km/h 96% 0.00in /  0mm
05:36 26.6 °F /  -3 °C 25.6 °F /  -3.6 °C 23.51in /  796hPa Calm   -999.0mph /  -1607.7km/h 96% 0.00in /  0mm
05:52 26.2 °F /  -3.2 °C 25.2 °F /  -3.8 °C 23.50in /  795.7hPa Calm   -999.0mph /  -1607.7km/h 96% 0.00in /  0mm
06:07 26.4 °F /  -3.1 °C 25.4 °F /  -3.7 °C 23.51in /  796hPa Calm   -999.0mph /  -1607.7km/h 96% 0.00in /  0mm
06:23 26.2 °F /  -3.2 °C 25.2 °F /  -3.8 °C 23.51in /  796hPa Calm   -999.0mph /  -1607.7km/h 96% 0.00in /  0mm
06:38 26.1 °F /  -3.3 °C 25.1 °F /  -3.8 °C 23.51in /  796hPa Calm   -999.0mph /  -1607.7km/h 96% 0.00in /  0mm
06:53 26.2 °F /  -3.2 °C 25.0 °F /  -3.9 °C 23.52in /  796.4hPa Calm   -999.0mph /  -1607.7km/h 95% 0.00in /  0mm
07:08 25.9 °F /  -3.4 °C 24.7 °F /  -4.1 °C 23.52in /  796.4hPa Calm   -999.0mph /  -1607.7km/h 95% 0.00in /  0mm
07:23 26.2 °F /  -3.2 °C 24.5 °F /  -4.2 °C 23.52in /  796.4hPa Calm   -999.0mph /  -1607.7km/h 93% 0.00in /  0mm
07:39 25.9 °F /  -3.4 °C 24.4 °F /  -4.2 °C 23.52in /  796.4hPa Calm   -999.0mph /  -1607.7km/h 94% 0.00in /  0mm
07:54 26.4 °F /  -3.1 °C 24.7 °F /  -4.1 °C 23.53in /  796.7hPa Calm   -999.0mph /  -1607.7km/h 93% 0.00in /  0mm
08:09 27.7 °F /  -2.4 °C 26.5 °F /  -3.1 °C 23.53in /  796.7hPa Calm   -999.0mph /  -1607.7km/h 95% 0.00in /  0mm
08:25 29.5 °F /  -1.4 °C 27.7 °F /  -2.4 °C 23.53in /  796.7hPa Calm   -999.0mph /  -1607.7km/h 93% 0.00in /  0mm
08:40 30.2 °F /  -1 °C 28.4 °F /  -2 °C 23.53in /  796.7hPa Calm   -999.0mph /  -1607.7km/h 93% 0.00in /  0mm
08:55 30.4 °F /  -0.9 °C 27.8 °F /  -2.3 °C 23.53in /  796.7hPa Calm   -999.0mph /  -1607.7km/h 90% 0.00in /  0mm
09:11 31.1 °F /  -0.5 °C 28.8 °F /  -1.8 °C 23.53in /  796.7hPa Calm   -999.0mph /  -1607.7km/h 91% 0.00in /  0mm
09:26 32.0 °F /  0 °C 29.7 °F /  -1.3 °C 23.53in /  796.7hPa Calm   -999.0mph /  -1607.7km/h 91% 0.00in /  0mm
09:41 33.8 °F /  1 °C 31.2 °F /  -0.4 °C 23.53in /  796.7hPa Calm   -999.0mph /  -1607.7km/h 90% 0.00in /  0mm
09:56 36.0 °F /  2.2 °C 32.5 °F /  0.3 °C 23.53in /  796.7hPa Calm   -999.0mph /  -1607.7km/h 87% 0.00in /  0mm
10:11 38.5 °F /  3.6 °C 30.9 °F /  -0.6 °C 23.53in /  796.7hPa WNW 1.1mph /  1.8km/h -999.0mph /  -1607.7km/h 74% 0.00in /  0mm
10:27 41.4 °F /  5.2 °C 26.0 °F /  -3.3 °C 23.53in /  796.7hPa Calm   -999.0mph /  -1607.7km/h 54% 0.00in /  0mm
10:42 44.4 °F /  6.9 °C 33.4 °F /  0.8 °C 23.53in /  796.7hPa Calm   -999.0mph /  -1607.7km/h 65% 0.00in /  0mm
10:57 48.6 °F /  9.2 °C 28.7 °F /  -1.8 °C 23.53in /  796.7hPa Calm   -999.0mph /  -1607.7km/h 46% 0.00in /  0mm
11:12 51.1 °F /  10.6 °C 27.6 °F /  -2.4 °C 23.53in /  796.7hPa NW 3.2mph /  5.1km/h -999.0mph /  -1607.7km/h 40% 0.00in /  0mm
11:27 51.8 °F /  11 °C 27.6 °F /  -2.4 °C 23.53in /  796.7hPa Calm   -999.0mph /  -1607.7km/h 39% 0.00in /  0mm
11:43 52.2 °F /  11.2 °C 28.0 °F /  -2.2 °C 23.52in /  796.4hPa NW 4.2mph /  6.8km/h -999.0mph /  -1607.7km/h 39% 0.00in /  0mm
11:58 52.3 °F /  11.3 °C 28.7 °F /  -1.8 °C 23.52in /  796.4hPa NNW 3.7mph /  6km/h -999.0mph /  -1607.7km/h 40% 0.00in /  0mm
12:14 54.7 °F /  12.6 °C 30.2 °F /  -1 °C 23.53in /  796.7hPa Calm   -999.0mph /  -1607.7km/h 39% 0.00in /  0mm
12:29 55.4 °F /  13 °C 32.1 °F /  0.1 °C 23.52in /  796.4hPa NNW 3.7mph /  6km/h -999.0mph /  -1607.7km/h 41% 0.00in /  0mm
12:44 53.8 °F /  12.1 °C 32.9 °F /  0.5 °C 23.52in /  796.4hPa NW 4.2mph /  6.8km/h -999.0mph /  -1607.7km/h 45% 0.00in /  0mm
13:00 54.5 °F /  12.5 °C 31.9 °F /  -0.1 °C 23.52in /  796.4hPa Calm   -999.0mph /  -1607.7km/h 42% 0.00in /  0mm
13:15 54.5 °F /  12.5 °C 31.3 °F /  -0.4 °C 23.51in /  796hPa NE 2.2mph /  3.5km/h -999.0mph /  -1607.7km/h 41% 0.00in /  0mm
13:31 54.5 °F /  12.5 °C 32.5 °F /  0.3 °C 23.51in /  796hPa NW 2.7mph /  4.3km/h -999.0mph /  -1607.7km/h 43% 0.00in /  0mm
13:46 54.7 °F /  12.6 °C 33.2 °F /  0.7 °C 23.51in /  796hPa SSE 3.2mph /  5.1km/h -999.0mph /  -1607.7km/h 44% 0.00in /  0mm
14:01 54.3 °F /  12.4 °C 32.3 °F /  0.2 °C 23.51in /  796hPa NNE 2.2mph /  3.5km/h -999.0mph /  -1607.7km/h 43% 0.00in /  0mm
14:17 54.9 °F /  12.7 °C 33.4 °F /  0.8 °C 23.50in /  795.7hPa West 2.2mph /  3.5km/h -999.0mph /  -1607.7km/h 44% 0.00in /  0mm
14:32 54.3 °F /  12.4 °C 34.5 °F /  1.4 °C 23.50in /  795.7hPa NW 5.3mph /  8.5km/h -999.0mph /  -1607.7km/h 47% 0.00in /  0mm
14:47 55.2 °F /  12.9 °C 34.2 °F /  1.2 °C 23.50in /  795.7hPa West 4.7mph /  7.6km/h -999.0mph /  -1607.7km/h 45% 0.00in /  0mm
15:02 54.0 °F /  12.2 °C 33.7 °F /  0.9 °C 23.49in /  795.4hPa WNW 3.7mph /  6km/h -999.0mph /  -1607.7km/h 46% 0.00in /  0mm
15:18 54.9 °F /  12.7 °C 34.5 °F /  1.4 °C 23.49in /  795.4hPa WNW 5.8mph /  9.3km/h -999.0mph /  -1607.7km/h 46% 0.00in /  0mm
15:33 54.5 °F /  12.5 °C 34.1 °F /  1.2 °C 23.49in /  795.4hPa WNW 7.3mph /  11.7km/h -999.0mph /  -1607.7km/h 46% 0.00in /  0mm
15:48 54.3 °F /  12.4 °C 34.5 °F /  1.4 °C 23.49in /  795.4hPa Calm   -999.0mph /  -1607.7km/h 47% 0.00in /  0mm
16:04 54.5 °F /  12.5 °C 34.1 °F /  1.2 °C 23.49in /  795.4hPa Calm   -999.0mph /  -1607.7km/h 46% 0.00in /  0mm
16:19 54.9 °F /  12.7 °C 35.0 °F /  1.7 °C 23.49in /  795.4hPa Calm   -999.0mph /  -1607.7km/h 47% 0.00in /  0mm
16:34 52.0 °F /  11.1 °C 33.4 °F /  0.8 °C 23.49in /  795.4hPa Calm   -999.0mph /  -1607.7km/h 49% 0.00in /  0mm
16:49 52.5 °F /  11.4 °C 33.9 °F /  1.1 °C 23.49in /  795.4hPa North 6.8mph /  10.9km/h -999.0mph /  -1607.7km/h 49% 0.00in /  0mm
17:04 52.9 °F /  11.6 °C 33.7 °F /  0.9 °C 23.48in /  795hPa Calm   -999.0mph /  -1607.7km/h 48% 0.00in /  0mm
17:20 52.2 °F /  11.2 °C 34.1 °F /  1.2 °C 23.49in /  795.4hPa Calm   -999.0mph /  -1607.7km/h 50% 0.00in /  0mm
17:35 51.6 °F /  10.9 °C 33.6 °F /  0.9 °C 23.49in /  795.4hPa Calm   -999.0mph /  -1607.7km/h 50% 0.00in /  0mm
17:50 50.9 °F /  10.5 °C 33.9 °F /  1.1 °C 23.49in /  795.4hPa Calm   -999.0mph /  -1607.7km/h 52% 0.00in /  0mm
18:05 50.0 °F /  10 °C 34.0 °F /  1.1 °C 23.49in /  795.4hPa Calm   -999.0mph /  -1607.7km/h 54% 0.00in /  0mm
18:21 48.6 °F /  9.2 °C 34.5 °F /  1.4 °C 23.49in /  795.4hPa Calm   -999.0mph /  -1607.7km/h 58% 0.00in /  0mm
18:36 47.5 °F /  8.6 °C 34.7 °F /  1.5 °C 23.49in /  795.4hPa Calm   -999.0mph /  -1607.7km/h 61% 0.00in /  0mm
18:51 46.2 °F /  7.9 °C 35.5 °F /  1.9 °C 23.49in /  795.4hPa Calm   -999.0mph /  -1607.7km/h 66% 0.00in /  0mm
19:06 45.1 °F /  7.3 °C 35.2 °F /  1.8 °C 23.50in /  795.7hPa Calm   -999.0mph /  -1607.7km/h 68% 0.00in /  0mm
19:21 43.9 °F /  6.6 °C 35.1 °F /  1.7 °C 23.50in /  795.7hPa Calm   -999.0mph /  -1607.7km/h 71% 0.00in /  0mm
19:37 42.8 °F /  6 °C 35.1 °F /  1.7 °C 23.50in /  795.7hPa Calm   -999.0mph /  -1607.7km/h 74% 0.00in /  0mm
19:52 41.7 °F /  5.4 °C 35.0 °F /  1.7 °C 23.50in /  795.7hPa Calm   -999.0mph /  -1607.7km/h 77% 0.00in /  0mm
20:07 40.8 °F /  4.9 °C 34.1 °F /  1.2 °C 23.50in /  795.7hPa Calm   -999.0mph /  -1607.7km/h 77% 0.00in /  0mm
20:22 39.7 °F /  4.3 °C 34.0 °F /  1.1 °C 23.51in /  796hPa Calm   -999.0mph /  -1607.7km/h 80% 0.00in /  0mm
20:37 38.7 °F /  3.7 °C 33.7 °F /  0.9 °C 23.51in /  796hPa Calm   -999.0mph /  -1607.7km/h 82% 0.00in /  0mm
20:53 38.1 °F /  3.4 °C 33.4 °F /  0.8 °C 23.51in /  796hPa Calm   -999.0mph /  -1607.7km/h 83% 0.00in /  0mm
21:08 37.2 °F /  2.9 °C 32.8 °F /  0.4 °C 23.51in /  796hPa Calm   -999.0mph /  -1607.7km/h 84% 0.00in /  0mm
21:23 36.5 °F /  2.5 °C 32.7 °F /  0.4 °C 23.51in /  796hPa Calm   -999.0mph /  -1607.7km/h 86% 0.00in /  0mm
21:38 35.8 °F /  2.1 °C 32.0 °F /  0 °C 23.52in /  796.4hPa Calm   -999.0mph /  -1607.7km/h 86% 0.00in /  0mm
21:53 35.6 °F /  2 °C 32.1 °F /  0.1 °C 23.52in /  796.4hPa Calm   -999.0mph /  -1607.7km/h 87% 0.00in /  0mm
22:09 35.1 °F /  1.7 °C 31.9 °F /  -0.1 °C 23.52in /  796.4hPa Calm   -999.0mph /  -1607.7km/h 88% 0.00in /  0mm
22:24 34.5 °F /  1.4 °C 31.6 °F /  -0.2 °C 23.52in /  796.4hPa Calm   -999.0mph /  -1607.7km/h 89% 0.00in /  0mm
22:39 34.0 °F /  1.1 °C 31.4 °F /  -0.3 °C 23.53in /  796.7hPa Calm   -999.0mph /  -1607.7km/h 90% 0.00in /  0mm
22:54 34.0 °F /  1.1 °C 31.7 °F /  -0.2 °C 23.52in /  796.4hPa Calm   -999.0mph /  -1607.7km/h 91% 0.00in /  0mm
23:09 33.6 °F /  0.9 °C 31.3 °F /  -0.4 °C 23.53in /  796.7hPa Calm   -999.0mph /  -1607.7km/h 91% 0.00in /  0mm
23:25 33.3 °F /  0.7 °C 31.2 °F /  -0.4 °C 23.53in /  796.7hPa Calm   -999.0mph /  -1607.7km/h 92% 0.00in /  0mm
23:40 32.9 °F /  0.5 °C 30.8 °F /  -0.7 °C 23.52in /  796.4hPa Calm   -999.0mph /  -1607.7km/h 92% 0.00in /  0mm
23:55 32.5 °F /  0.3 °C 30.4 °F /  -0.9 °C 23.52in /  796.4hPa Calm   -999.0mph /  -1607.7km/h 92% 0.00in /  0mm
Big Bear CA Weather